Time;durP1;ratioP1;P1;durP2;ratioP2;P2;SDS_P1;SDS_P2;PMS_P1;PMS_P2;Temp;Humidity;BMP_temperature;BMP_pressure;BME280_temperature;BME280_humidity;BME280_pressure;Samples;Min_cycle;Max_cycle;Signal;HPM_P1;HPM_P2
2023/02/27 00:02:13;;;;;;;4.57;1.30;;;;;;;-2.78;100.00;99234.41;4968510;28;20077;-75
2023/02/27 00:04:38;;;;;;;5.40;1.10;;;;;;;-2.82;100.00;99237.41;4968859;28;20117;-75
2023/02/27 00:07:04;;;;;;;1.33;1.05;;;;;;;-2.82;100.00;99240.88;4984191;28;20404;-75
2023/02/27 00:09:29;;;;;;;2.40;0.88;;;;;;;-2.65;100.00;99248.50;4969278;28;20042;-75
2023/02/27 00:11:54;;;;;;;2.10;1.20;;;;;;;-2.71;100.00;99256.00;4967252;28;20041;-75
2023/02/27 00:14:21;;;;;;;1.10;0.85;;;;;;;-2.76;100.00;99252.84;4963038;28;20539;-75
2023/02/27 00:16:46;;;;;;;5.93;0.90;;;;;;;-2.77;100.00;99237.91;4962346;28;20061;-75
2023/02/27 00:19:12;;;;;;;1.38;1.00;;;;;;;-2.77;100.00;99249.34;4983497;28;20037;-76
2023/02/27 00:21:38;;;;;;;1.23;0.88;;;;;;;-2.79;100.00;99243.31;4970721;28;20038;-75
2023/02/27 00:24:03;;;;;;;2.15;0.90;;;;;;;-2.92;100.00;99240.66;4971024;28;20038;-75
2023/02/27 00:26:29;;;;;;;3.70;1.48;;;;;;;-2.88;100.00;99230.72;4970711;28;20035;-76
2023/02/27 00:28:54;;;;;;;1.85;1.30;;;;;;;-2.71;100.00;99232.19;4958630;28;20121;-75
2023/02/27 00:31:20;;;;;;;1.77;1.05;;;;;;;-2.65;100.00;99245.84;4964509;28;20038;-75
2023/02/27 00:33:45;;;;;;;2.83;1.50;;;;;;;-2.70;100.00;99239.16;4961416;28;20023;-76
2023/02/27 00:36:10;;;;;;;1.40;0.90;;;;;;;-2.67;100.00;99241.59;4965884;28;20064;-75
2023/02/27 00:38:36;;;;;;;1.83;1.02;;;;;;;-2.68;100.00;99242.53;4969151;28;20073;-75
2023/02/27 00:41:01;;;;;;;1.90;1.17;;;;;;;-2.74;100.00;99243.84;4959128;28;20039;-75
2023/02/27 00:43:27;;;;;;;4.72;1.30;;;;;;;-2.71;100.00;99246.25;4964234;28;20050;-76
2023/02/27 00:45:52;;;;;;;5.45;1.10;;;;;;;-2.79;100.00;99235.38;4964823;28;20027;-75
2023/02/27 00:48:17;;;;;;;1.13;0.80;;;;;;;-2.71;100.00;99234.81;4981407;28;20035;-75
2023/02/27 00:50:43;;;;;;;3.35;1.20;;;;;;;-2.71;100.00;99238.31;4962527;28;20042;-75
2023/02/27 00:53:09;;;;;;;3.38;1.20;;;;;;;-2.76;100.00;99251.03;4970930;28;20139;-75
2023/02/27 00:55:34;;;;;;;4.50;1.35;;;;;;;-2.68;100.00;99242.53;4953234;28;20428;-75
2023/02/27 00:57:59;;;;;;;2.15;1.10;;;;;;;-2.69;100.00;99244.34;4999250;23;20135;-69
2023/02/27 01:00:25;;;;;;;3.58;1.23;;;;;;;-2.81;100.00;99236.44;4975343;28;20070;-69
2023/02/27 01:02:51;;;;;;;3.45;1.23;;;;;;;-2.68;100.00;99247.84;4953286;28;20531;-69
2023/02/27 01:05:16;;;;;;;2.10;1.00;;;;;;;-2.82;100.00;99222.34;4969594;28;20037;-69
2023/02/27 01:07:41;;;;;;;3.28;1.20;;;;;;;-2.81;100.00;99216.09;4960709;28;20065;-71
2023/02/27 01:10:08;;;;;;;2.28;1.50;;;;;;;-2.75;100.00;99243.94;5003282;28;20032;-69
2023/02/27 01:12:33;;;;;;;2.00;1.10;;;;;;;-2.73;100.00;99239.38;4944555;28;20055;-69
2023/02/27 01:14:59;;;;;;;3.78;1.45;;;;;;;-2.72;100.00;99243.75;4956147;28;20070;-72
2023/02/27 01:17:24;;;;;;;1.45;0.98;;;;;;;-2.81;100.00;99247.84;4956833;28;20087;-69
2023/02/27 01:19:50;;;;;;;1.42;1.10;;;;;;;-2.96;100.00;99228.63;4952787;28;20091;-72
2023/02/27 01:22:15;;;;;;;2.78;1.13;;;;;;;-2.89;100.00;99232.50;4989058;28;20520;-69
2023/02/27 01:24:40;;;;;;;1.83;0.93;;;;;;;-2.81;100.00;99241.72;4952231;28;20039;-69
2023/02/27 01:27:06;;;;;;;1.85;1.10;;;;;;;-2.89;100.00;99213.97;4954999;28;20027;-69
2023/02/27 01:29:31;;;;;;;2.63;1.10;;;;;;;-2.71;100.00;99246.25;4953658;28;20035;-69
2023/02/27 01:31:56;;;;;;;3.92;1.30;;;;;;;-2.78;100.00;99228.25;4948965;28;20653;-70
2023/02/27 01:34:21;;;;;;;5.00;1.40;;;;;;;-2.78;100.00;99236.19;4950943;28;20031;-70
2023/02/27 01:36:47;;;;;;;0.93;0.70;;;;;;;-2.79;100.00;99245.97;4976031;28;20035;-70
2023/02/27 01:39:12;;;;;;;2.35;1.10;;;;;;;-3.02;100.00;99229.03;4952425;28;20434;-70
2023/02/27 01:41:38;;;;;;;4.03;1.20;;;;;;;-2.94;100.00;99247.03;4964358;28;20024;-70
2023/02/27 01:44:09;;;;;;;4.22;1.10;;;;;;;-2.99;100.00;99252.63;4974712;28;20033;-70
2023/02/27 01:46:35;;;;;;;3.10;1.23;;;;;;;-3.05;100.00;99231.91;4951048;28;20496;-69
2023/02/27 01:49:18;;;;;;;3.40;0.90;;;;;;;-2.95;100.00;99251.47;4966455;28;20039;-70
2023/02/27 01:51:54;;;;;;;1.27;0.88;;;;;;;-2.95;100.00;99238.25;4952980;28;20031;-70
2023/02/27 01:54:22;;;;;;;2.00;1.08;;;;;;;-2.93;100.00;99246.94;4995945;28;20031;-70
2023/02/27 01:56:49;;;;;;;4.25;1.50;;;;;;;-2.97;100.00;99237.50;4959186;28;20474;-70
2023/02/27 01:59:16;;;;;;;1.60;1.00;;;;;;;-3.02;100.00;99234.31;4950686;28;20507;-70
2023/02/27 02:01:41;;;;;;;1.88;1.00;;;;;;;-3.06;100.00;99229.38;4950841;28;20034;-70
2023/02/27 02:04:16;;;;;;;3.75;1.17;;;;;;;-3.09;100.00;99241.84;4958595;28;20031;-70
2023/02/27 02:06:46;;;;;;;2.00;1.08;;;;;;;-3.04;100.00;99249.47;4937165;28;20385;-70
2023/02/27 02:09:13;;;;;;;3.25;1.10;;;;;;;-3.05;100.00;99255.72;4955574;28;20034;-70
2023/02/27 02:11:38;;;;;;;3.78;1.08;;;;;;;-3.17;100.00;99248.63;4980709;28;20028;-70
2023/02/27 02:14:09;;;;;;;1.55;1.15;;;;;;;-3.15;100.00;99249.34;5041125;28;21743;-70
2023/02/27 02:17:00;;;;;;;2.67;1.17;;;;;;;-3.24;100.00;99242.06;4948599;28;20027;-70
2023/02/27 02:19:57;;;;;;;4.65;1.05;;;;;;;-3.10;100.00;99240.16;4944399;28;20023;-70
2023/02/27 02:22:41;;;;;;;2.90;1.13;;;;;;;-3.08;100.00;99250.63;4966340;28;20089;-70
2023/02/27 02:25:19;;;;;;;2.17;1.00;;;;;;;-3.07;100.00;99254.97;4935061;29;20030;-70
2023/02/27 02:27:56;;;;;;;3.65;1.42;;;;;;;-3.17;100.00;99244.19;4948246;28;20028;-70
2023/02/27 02:31:10;;;;;;;2.05;0.93;;;;;;;-3.25;100.00;99251.78;4983505;28;20094;-70
2023/02/27 02:33:56;;;;;;;3.92;1.00;;;;;;;-3.28;100.00;99249.34;4944330;28;20119;-70
2023/02/27 02:36:27;;;;;;;3.05;1.20;;;;;;;-3.19;100.00;99255.84;4952965;28;20023;-70
2023/02/27 02:39:13;;;;;;;2.00;0.90;;;;;;;-3.27;100.00;99250.22;4938584;29;20027;-70
2023/02/27 02:41:53;;;;;;;2.28;1.17;;;;;;;-3.36;100.00;99234.00;4955164;28;20085;-70
2023/02/27 02:44:29;;;;;;;3.42;1.45;;;;;;;-3.25;100.00;99253.59;4946900;29;20039;-70
2023/02/27 02:47:07;;;;;;;2.25;1.17;;;;;;;-3.29;100.00;99249.47;4940384;28;20054;-70
2023/02/27 02:49:54;;;;;;;2.00;0.75;;;;;;;-3.46;100.00;99221.50;4956124;28;20154;-70
2023/02/27 02:52:41;;;;;;;3.90;1.30;;;;;;;-3.33;100.00;99248.81;4992451;28;20029;-70
2023/02/27 02:55:28;;;;;;;2.28;1.20;;;;;;;-3.31;100.00;99245.13;4945536;28;20027;-70
2023/02/27 02:58:20;;;;;;;2.90;1.20;;;;;;;-3.39;100.00;99241.31;4955657;28;20470;-70
2023/02/27 03:00:51;;;;;;;3.33;1.30;;;;;;;-3.39;100.00;99243.94;4975940;28;20658;-70
2023/02/27 03:03:29;;;;;;;2.63;1.25;;;;;;;-3.31;100.00;99260.16;4996757;28;20035;-70
2023/02/27 03:06:02;;;;;;;2.92;1.38;;;;;;;-3.28;100.00;99256.44;4952507;28;20395;-70
2023/02/27 03:08:35;;;;;;;2.63;1.20;;;;;;;-3.31;100.00;99265.44;4953384;28;20053;-70
2023/02/27 03:11:02;;;;;;;5.00;1.10;;;;;;;-3.25;100.00;99265.00;4944073;28;20504;-70
2023/02/27 03:13:40;;;;;;;3.08;1.38;;;;;;;-3.31;100.00;99266.28;4960094;28;20035;-70
2023/02/27 03:16:28;;;;;;;3.42;1.20;;;;;;;-3.33;100.00;99257.63;5014411;28;20550;-70
2023/02/27 03:19:17;;;;;;;2.92;1.27;;;;;;;-3.40;100.00;99251.03;4995849;28;20027;-70
2023/02/27 03:21:58;;;;;;;2.05;1.17;;;;;;;-3.38;100.00;99254.44;4956851;28;20538;-70
2023/02/27 03:24:31;;;;;;;3.20;1.20;;;;;;;-3.39;100.00;99255.38;5011041;28;20402;-70
2023/02/27 03:27:01;;;;;;;3.95;1.30;;;;;;;-3.25;100.00;99265.00;4951904;28;21178;-70
2023/02/27 03:29:36;;;;;;;3.50;1.60;;;;;;;-3.32;100.00;99266.41;4991211;28;20035;-70
2023/02/27 03:32:11;;;;;;;3.63;1.17;;;;;;;-3.35;100.00;99275.41;4945112;28;20062;-70
2023/02/27 03:34:41;;;;;;;3.88;1.42;;;;;;;-3.37;100.00;99252.63;4943030;28;20027;-70
2023/02/27 03:37:21;;;;;;;2.97;1.45;;;;;;;-3.28;100.00;99267.03;4982532;28;20402;-70
2023/02/27 03:40:07;;;;;;;3.30;1.73;;;;;;;-3.46;100.00;99246.16;5038715;28;20343;-70
2023/02/27 03:42:40;;;;;;;1.98;1.20;;;;;;;-3.27;100.00;99269.59;4950882;28;20122;-70
2023/02/27 03:45:39;;;;;;;1.88;1.20;;;;;;;-3.29;100.00;99276.78;4945992;28;20024;-70
2023/02/27 03:48:05;;;;;;;3.70;1.05;;;;;;;-3.28;100.00;99281.09;4951773;28;20027;-70
2023/02/27 03:50:31;;;;;;;2.78;0.98;;;;;;;-3.22;100.00;99280.69;4953002;28;20440;-70
2023/02/27 03:52:57;;;;;;;2.90;1.23;;;;;;;-3.20;100.00;99285.88;4988053;28;20036;-70
2023/02/27 03:55:34;;;;;;;2.38;1.50;;;;;;;-3.30;100.00;99269.78;4946026;28;20015;-70
2023/02/27 03:58:00;;;;;;;4.85;1.58;;;;;;;-3.32;100.00;99285.75;4956028;28;20023;-70
2023/02/27 04:00:26;;;;;;;3.05;1.30;;;;;;;-3.41;100.00;99273.13;4935084;28;20492;-70
2023/02/27 04:02:55;;;;;;;2.03;1.33;;;;;;;-3.44;100.00;99281.28;4937383;29;20100;-70
2023/02/27 04:05:21;;;;;;;2.40;1.77;;;;;;;-3.40;100.00;99297.81;4949386;28;20031;-70
2023/02/27 04:07:46;;;;;;;1.83;1.10;;;;;;;-3.38;100.00;99296.78;4955526;28;20787;-70
2023/02/27 04:10:33;;;;;;;1.90;1.05;;;;;;;-3.34;100.00;99307.97;4947221;28;20039;-70
2023/02/27 04:13:04;;;;;;;3.70;1.33;;;;;;;-3.43;100.00;99306.81;4952801;28;20420;-70
2023/02/27 04:15:49;;;;;;;2.15;1.30;;;;;;;-3.47;100.00;99289.44;4957401;28;20023;-70
2023/02/27 04:18:33;;;;;;;1.90;1.30;;;;;;;-3.27;100.00;99308.44;4956544;28;20449;-70
2023/02/27 04:21:08;;;;;;;3.17;1.48;;;;;;;-3.40;100.00;99295.19;4941157;29;20023;-70
2023/02/27 04:23:39;;;;;;;2.15;1.13;;;;;;;-3.31;100.00;99305.97;4947692;28;20031;-70
2023/02/27 04:26:22;;;;;;;3.97;1.55;;;;;;;-3.37;100.00;99303.75;4950144;28;20077;-70
2023/02/27 04:29:04;;;;;;;5.65;1.48;;;;;;;-3.37;100.00;99293.16;4949670;28;20097;-70
2023/02/27 04:31:52;;;;;;;2.45;1.40;;;;;;;-3.48;100.00;99298.34;4961368;28;20419;-71
2023/02/27 04:34:28;;;;;;;4.28;1.42;;;;;;;-3.43;100.00;99309.47;4957630;28;20035;-70
2023/02/27 04:37:00;;;;;;;6.07;1.90;;;;;;;-3.40;100.00;99296.03;4966407;28;20023;-70
2023/02/27 04:39:30;;;;;;;3.08;1.30;;;;;;;-3.50;100.00;99289.66;4931889;28;20114;-70
2023/02/27 04:42:02;;;;;;;2.53;1.33;;;;;;;-3.47;100.00;99286.78;4940034;28;20042;-70
2023/02/27 04:44:30;;;;;;;2.20;1.27;;;;;;;-3.47;100.00;99294.72;4948119;28;20039;-70
2023/02/27 04:46:58;;;;;;;2.78;1.30;;;;;;;-3.33;100.00;99310.53;4970372;28;20027;-70
2023/02/27 04:49:28;;;;;;;4.90;1.50;;;;;;;-3.57;100.00;99289.19;4951964;29;20031;-70
2023/02/27 04:51:59;;;;;;;1.92;1.40;;;;;;;-3.47;100.00;99307.94;4955429;28;20110;-70
2023/02/27 04:54:42;;;;;;;4.22;1.42;;;;;;;-3.32;100.00;99301.63;4982145;28;20035;-71
2023/02/27 04:57:17;;;;;;;2.80;1.52;;;;;;;-3.28;100.00;99296.13;4962630;28;20034;-70
2023/02/27 04:59:47;;;;;;;4.97;1.65;;;;;;;-3.40;100.00;99298.66;4993380;28;20033;-78
2023/02/27 05:10:03;;;;;;;2.97;1.58;;;;;;;-4.54;100.00;99172.28;4969942;28;20054;-78
2023/02/27 05:13:01;;;;;;;4.13;1.45;;;;;;;-3.54;100.00;99311.94;4981244;28;20088;-79
2023/02/27 05:15:39;;;;;;;3.30;1.88;;;;;;;-3.53;100.00;99318.94;4934305;29;20031;-78
2023/02/27 05:18:08;;;;;;;5.85;1.70;;;;;;;-3.79;100.00;99281.00;4923471;29;20481;-78
2023/02/27 05:20:52;;;;;;;3.90;1.80;;;;;;;-3.65;100.00;99295.94;5004536;28;20025;-78
2023/02/27 05:23:56;;;;;;;5.32;2.28;;;;;;;-3.66;100.00;99312.78;4957959;28;20044;-78
2023/02/27 05:26:42;;;;;;;4.70;1.90;;;;;;;-3.70;100.00;99311.25;4955782;28;20036;-79
2023/02/27 05:29:26;;;;;;;3.92;1.98;;;;;;;-3.76;100.00;99297.50;4960690;28;20023;-72
2023/02/27 05:31:59;;;;;;;5.20;2.00;;;;;;;-3.69;100.00;99307.66;4962257;28;20035;-73
2023/02/27 05:34:33;;;;;;;4.28;1.77;;;;;;;-3.72;100.00;99308.75;4964961;28;20031;-75
2023/02/27 05:37:03;;;;;;;3.78;1.60;;;;;;;-3.79;100.00;99318.84;4957076;28;20024;-74
2023/02/27 05:39:33;;;;;;;2.85;1.58;;;;;;;-3.82;100.00;99308.50;4959665;28;20045;-74
2023/02/27 05:42:08;;;;;;;5.85;2.05;;;;;;;-3.78;100.00;99331.13;4959262;28;20069;-72
2023/02/27 05:44:38;;;;;;;7.95;1.65;;;;;;;-3.84;100.00;99305.09;4943514;28;20028;-72
2023/02/27 05:47:09;;;;;;;2.30;1.58;;;;;;;-3.65;100.00;99320.59;4943798;29;20119;-72
2023/02/27 05:49:46;;;;;;;3.75;1.83;;;;;;;-3.72;100.00;99307.88;4954492;28;20114;-72
2023/02/27 05:52:17;;;;;;;4.05;1.80;;;;;;;-3.63;100.00;99329.28;4968872;28;20031;-71
2023/02/27 05:54:45;;;;;;;6.43;2.35;;;;;;;-3.69;100.00;99339.38;4954644;28;20595;-71
2023/02/27 05:57:16;;;;;;;6.38;2.42;;;;;;;-3.76;100.00;99333.69;4953763;28;20033;-75
2023/02/27 06:00:03;;;;;;;4.75;1.77;;;;;;;-3.71;100.00;99351.88;4947547;28;20407;-73
2023/02/27 06:02:28;;;;;;;7.30;2.10;;;;;;;-3.64;100.00;99337.31;4947521;28;20083;-71
2023/02/27 06:04:53;;;;;;;4.05;2.15;;;;;;;-3.69;100.00;99353.47;4983547;28;20472;-71
2023/02/27 06:07:19;;;;;;;4.20;2.05;;;;;;;-3.60;100.00;99344.09;4956328;28;20039;-77
2023/02/27 06:09:46;;;;;;;4.35;2.20;;;;;;;-3.62;100.00;99335.41;4983030;28;20409;-77
2023/02/27 06:12:11;;;;;;;6.03;1.75;;;;;;;-3.55;100.00;99320.84;4945881;29;20034;-77
2023/02/27 06:14:36;;;;;;;8.60;2.13;;;;;;;-3.63;100.00;99302.00;4958664;28;20465;-77
2023/02/27 06:17:02;;;;;;;5.10;1.63;;;;;;;-3.42;100.00;99347.34;4951237;28;20031;-78
2023/02/27 06:19:28;;;;;;;3.67;1.85;;;;;;;-3.54;100.00;99328.69;4959409;28;20531;-78
2023/02/27 06:21:54;;;;;;;7.88;1.88;;;;;;;-3.54;100.00;99338.38;4953238;28;20034;-77
2023/02/27 06:24:20;;;;;;;6.95;2.72;;;;;;;-3.58;100.00;99332.47;4954307;28;20028;-77
2023/02/27 06:26:46;;;;;;;4.20;2.38;;;;;;;-3.66;100.00;99315.41;4965748;28;20027;-73
2023/02/27 06:29:12;;;;;;;4.10;2.03;;;;;;;-3.34;100.00;99356.44;4952548;28;20020;-78
2023/02/27 06:31:38;;;;;;;5.05;2.30;;;;;;;-3.70;100.00;99287.47;4953090;28;20084;-78
2023/02/27 06:34:04;;;;;;;3.78;2.10;;;;;;;-3.52;100.00;99320.63;4951307;28;20111;-77
2023/02/27 06:36:30;;;;;;;6.25;2.05;;;;;;;-3.35;100.00;99349.47;4948167;28;20062;-78
2023/02/27 06:38:55;;;;;;;7.25;2.10;;;;;;;-3.43;100.00;99325.31;4989071;28;20272;-79
2023/02/27 06:41:20;;;;;;;4.25;2.22;;;;;;;-2.45;100.00;99366.28;5036128;28;20048;-75
2023/02/27 06:43:46;;;;;;;5.38;2.10;;;;;;;-0.12;100.00;99357.81;5053908;28;20385;-79
2023/02/27 06:46:11;;;;;;;7.05;2.42;;;;;;;1.72;100.00;99354.00;4982825;28;20032;-78
2023/02/27 06:48:36;;;;;;;5.55;1.80;;;;;;;3.08;100.00;99329.38;5004591;28;20066;-76
2023/02/27 06:51:02;;;;;;;2.75;1.67;;;;;;;3.24;96.77;99316.25;4984543;28;20019;-75
2023/02/27 06:53:28;;;;;;;5.63;1.38;;;;;;;3.43;92.44;99343.94;4934836;29;20020;-77
2023/02/27 06:55:53;;;;;;;4.00;1.45;;;;;;;3.94;87.94;99316.72;4942226;28;20031;-78
2023/02/27 06:58:19;;;;;;;3.38;1.75;;;;;;;4.46;81.00;99334.91;4951179;28;20029;-77
2023/02/27 07:00:44;;;;;;;5.07;1.90;;;;;;;4.63;78.98;99356.50;4961668;28;20476;-77
2023/02/27 07:06:32;;;;;;;4.78;1.33;;;;;;;5.74;67.63;99287.09;4940216;28;20504;-77
2023/02/27 07:09:38;;;;;;;4.82;1.58;;;;;;;5.85;68.75;99362.00;4984302;28;20031;-78
2023/02/27 07:12:07;;;;;;;3.35;1.50;;;;;;;7.29;61.92;99351.16;4966914;28;20046;-79
2023/02/27 07:14:33;;;;;;;5.53;1.42;;;;;;;7.58;60.66;99356.84;4966945;28;20034;-78
2023/02/27 07:17:03;;;;;;;4.50;1.50;;;;;;;7.58;59.34;99367.63;4951884;29;20079;-79
2023/02/27 07:19:29;;;;;;;5.70;1.63;;;;;;;6.53;59.44;99370.06;4942569;28;20035;-79
2023/02/27 07:21:54;;;;;;;2.75;1.40;;;;;;;7.45;58.25;99353.84;5026599;28;20165;-79
2023/02/27 07:24:25;;;;;;;2.78;1.30;;;;;;;7.23;58.44;99355.34;4966665;28;20011;-79
2023/02/27 07:26:58;;;;;;;3.85;1.35;;;;;;;8.03;55.44;99279.94;4961274;28;20110;-79
2023/02/27 07:29:34;;;;;;;;;;;;;;;;;;;;;
2023/02/27 07:32:10;;;;;;;;;;;;;;;;;;;;;
2023/02/27 07:34:36;;;;;;;13.90;1.90;;;;;;;7.76;54.89;99251.59;4935392;29;20028;-79
2023/02/27 07:37:10;;;;;;;4.72;1.70;;;;;;;7.81;53.20;99202.59;4966506;28;20027;-78
2023/02/27 07:39:39;;;;;;;3.25;1.65;;;;;;;8.48;51.81;99301.81;5056879;28;20027;-79
2023/02/27 07:42:05;;;;;;;2.58;1.30;;;;;;;9.21;50.66;99290.47;4959838;28;20034;-80
2023/02/27 07:44:32;;;;;;;5.05;1.67;;;;;;;8.89;49.38;99270.00;4933215;29;20115;-79
2023/02/27 07:46:58;;;;;;;2.22;1.10;;;;;;;10.42;48.34;99339.00;4933646;29;20588;-80
2023/02/27 07:49:23;;;;;;;3.92;1.23;;;;;;;9.94;47.40;99289.91;4952191;29;20031;-75
2023/02/27 07:52:01;;;;;;;;;;;;;;;;;;;;;
2023/02/27 07:54:27;;;;;;;2.93;1.40;;;;;;;10.43;45.44;99329.88;4947182;28;20115;-75
2023/02/27 07:56:53;;;;;;;3.50;1.40;;;;;;;10.36;46.47;99356.00;4953459;28;20032;-73
2023/02/27 07:59:18;;;;;;;2.20;1.27;;;;;;;10.58;45.59;99371.25;4948393;28;20430;-79
2023/02/27 08:01:44;;;;;;;2.92;1.52;;;;;;;10.41;46.18;99373.34;4977659;23;20071;-78
2023/02/27 08:04:10;;;;;;;3.83;1.77;;;;;;;11.06;44.60;99365.34;4946858;29;20035;-78
2023/02/27 08:06:35;;;;;;;3.08;1.50;;;;;;;10.88;44.72;99373.91;4951316;28;20027;-75
2023/02/27 08:09:00;;;;;;;4.10;1.65;;;;;;;11.06;43.57;99366.19;4952757;28;20074;-75
2023/02/27 08:11:25;;;;;;;3.38;1.48;;;;;;;11.38;42.91;99367.53;4942887;28;20027;-75
2023/02/27 08:13:51;;;;;;;3.25;1.58;;;;;;;11.21;42.80;99362.56;4932920;29;20487;-75
2023/02/27 08:16:17;;;;;;;3.42;1.30;;;;;;;11.16;42.46;99372.13;4929088;29;20024;-75
2023/02/27 08:18:42;;;;;;;3.42;1.48;;;;;;;11.37;41.88;99359.56;4924698;29;20389;-77
2023/02/27 08:21:07;;;;;;;4.45;1.27;;;;;;;11.88;41.87;99367.53;4925701;29;20448;-75
2023/02/27 08:23:33;;;;;;;4.72;1.85;;;;;;;13.01;40.53;99364.50;4932099;28;20057;-74
2023/02/27 08:25:59;;;;;;;2.45;1.40;;;;;;;12.79;39.78;99364.66;4948579;29;20027;-75
2023/02/27 08:28:26;;;;;;;4.38;1.50;;;;;;;12.32;39.99;99369.06;4933246;29;20024;-75
2023/02/27 08:30:52;;;;;;;2.90;1.30;;;;;;;14.10;38.09;99376.94;4933015;28;20023;-79
2023/02/27 08:33:17;;;;;;;5.50;1.60;;;;;;;13.13;39.20;99373.75;4952404;28;20028;-76
2023/02/27 08:35:42;;;;;;;2.13;1.30;;;;;;;13.73;38.10;99377.38;4932994;28;20547;-77
2023/02/27 08:38:09;;;;;;;3.45;1.42;;;;;;;14.03;38.03;99376.91;4945019;28;20023;-74
2023/02/27 08:40:34;;;;;;;3.45;1.42;;;;;;;12.68;38.15;99378.81;4942447;28;20028;-78
2023/02/27 08:43:00;;;;;;;1.65;0.98;;;;;;;13.48;37.98;99384.47;4953187;28;20032;-74
2023/02/27 08:45:25;;;;;;;3.63;1.30;;;;;;;14.64;36.46;99362.94;4925238;29;20087;-72
2023/02/27 08:47:51;;;;;;;3.15;1.65;;;;;;;14.15;36.90;99374.41;4928536;29;20038;-72
2023/02/27 08:50:16;;;;;;;3.78;1.40;;;;;;;14.65;36.45;99370.06;4973062;28;20124;-71
2023/02/27 08:52:41;;;;;;;2.80;1.50;;;;;;;14.42;36.04;99386.88;4934519;29;20030;-71
2023/02/27 08:55:07;;;;;;;2.40;1.25;;;;;;;15.34;35.54;99338.44;4934392;29;20028;-70
2023/02/27 08:57:32;;;;;;;2.58;1.27;;;;;;;14.15;36.17;99382.56;4936663;28;20099;-70
2023/02/27 08:59:58;;;;;;;2.75;1.35;;;;;;;15.22;35.18;99378.38;4934971;29;20051;-70
2023/02/27 09:02:25;;;;;;;3.35;1.30;;;;;;;13.79;35.74;99383.84;4931426;28;20959;-71
2023/02/27 09:04:51;;;;;;;2.70;1.33;;;;;;;15.66;34.73;99376.56;4933520;29;20089;-71
2023/02/27 09:07:17;;;;;;;2.75;1.50;;;;;;;16.74;33.70;99371.72;4929532;29;20067;-71
2023/02/27 09:09:44;;;;;;;3.20;1.27;;;;;;;16.47;33.17;99379.41;4933978;29;20075;-75
2023/02/27 09:12:09;;;;;;;3.67;1.30;;;;;;;16.67;33.03;99390.94;4947951;29;20511;-76
2023/02/27 09:14:35;;;;;;;7.03;2.05;;;;;;;16.10;33.73;99369.28;4946516;28;20029;-78
2023/02/27 09:17:00;;;;;;;2.03;1.17;;;;;;;16.40;33.00;99387.66;4966366;28;20024;-78
2023/02/27 09:19:25;;;;;;;3.25;1.50;;;;;;;15.47;33.13;99386.59;4944147;28;20059;-77
2023/02/27 09:21:51;;;;;;;2.47;1.30;;;;;;;15.52;34.22;99385.94;4935015;28;20034;-73
2023/02/27 09:24:16;;;;;;;3.25;1.40;;;;;;;14.75;34.33;99398.72;4930220;28;20024;-72
2023/02/27 09:26:41;;;;;;;2.53;1.20;;;;;;;16.83;33.39;99387.59;4932061;29;20441;-73
2023/02/27 09:29:07;;;;;;;2.13;0.90;;;;;;;13.76;35.34;99397.88;4974850;28;20028;-73
2023/02/27 09:31:32;;;;;;;3.22;1.10;;;;;;;15.15;34.00;99385.75;4927147;29;20032;-73
2023/02/27 09:34:00;;;;;;;2.08;1.23;;;;;;;14.86;33.93;99395.34;4940431;28;20024;-73
2023/02/27 09:36:26;;;;;;;3.60;1.17;;;;;;;15.37;34.02;99399.88;4932136;29;20024;-73
2023/02/27 09:38:51;;;;;;;5.68;1.67;;;;;;;16.13;33.30;99409.78;4931447;28;20122;-73
2023/02/27 09:41:30;;;;;;;2.13;1.05;;;;;;;16.43;33.45;99409.06;4935750;28;20023;-73
2023/02/27 09:43:56;;;;;;;;;;;;;;;16.53;33.02;99408.53;4928680;29;23480;-73
2023/02/27 09:46:24;;;;;;;1.93;1.00;;;;;;;17.92;32.13;99394.84;4937428;28;19918;-73
2023/02/27 09:48:53;;;;;;;2.88;1.40;;;;;;;16.31;32.05;99406.25;4961479;28;20311;-73
2023/02/27 09:51:19;;;;;;;1.95;1.40;;;;;;;16.76;32.23;99396.91;4968177;28;20512;-73
2023/02/27 09:53:48;;;;;;;1.77;0.90;;;;;;;15.97;33.02;99402.16;4935182;29;20043;-74
2023/02/27 09:56:28;;;;;;;3.85;0.93;;;;;;;16.18;33.46;99414.56;4921514;29;20028;-73
2023/02/27 09:59:23;;;;;;;3.78;1.00;;;;;;;16.32;32.80;99397.00;4934658;29;20032;-73
2023/02/27 10:01:55;;;;;;;3.85;0.90;;;;;;;16.04;32.92;99402.94;4945486;28;20055;-73
2023/02/27 10:04:36;;;;;;;2.55;1.23;;;;;;;15.45;33.50;99415.13;4951477;29;20016;-73
2023/02/27 10:07:28;;;;;;;2.33;1.02;;;;;;;13.68;35.45;99412.53;4933200;28;20032;-73
2023/02/27 10:10:24;;;;;;;5.00;1.20;;;;;;;14.74;35.00;99416.13;4936426;28;20036;-73
2023/02/27 10:13:26;;;;;;;2.15;1.05;;;;;;;13.37;35.68;99413.94;4965832;28;20112;-73
2023/02/27 10:15:53;;;;;;;2.95;1.30;;;;;;;13.45;35.55;99414.78;4923300;29;20035;-73
2023/02/27 10:18:22;;;;;;;3.15;1.05;;;;;;;12.57;37.28;99425.53;4936859;28;20052;-73
2023/02/27 10:20:55;;;;;;;5.97;1.40;;;;;;;13.92;35.57;99430.09;4936540;29;20106;-72
2023/02/27 10:23:32;;;;;;;3.97;1.17;;;;;;;14.65;35.21;99421.81;4925118;28;20026;-73
2023/02/27 10:25:59;;;;;;;3.95;1.13;;;;;;;13.71;36.54;99427.59;4955079;28;20042;-73
2023/02/27 10:28:25;;;;;;;3.85;1.15;;;;;;;15.41;35.24;99428.38;4939535;28;20030;-73
2023/02/27 10:30:54;;;;;;;2.42;1.15;;;;;;;13.62;35.09;99435.09;4934746;29;20024;-72
2023/02/27 10:33:37;;;;;;;2.67;1.42;;;;;;;10.50;39.19;99439.81;4951107;28;20032;-72
2023/02/27 10:36:10;;;;;;;4.20;1.42;;;;;;;11.92;38.29;99433.91;4935778;28;20028;-72
2023/02/27 10:38:40;;;;;;;5.13;2.00;;;;;;;13.11;36.91;99438.31;4953239;28;20481;-72
2023/02/27 10:41:10;;;;;;;2.67;1.40;;;;;;;14.69;35.42;99436.66;4932725;28;20032;-73
2023/02/27 10:43:35;;;;;;;4.80;1.08;;;;;;;15.33;34.48;99426.75;4932777;29;20032;-73
2023/02/27 10:46:02;;;;;;;1.60;0.90;;;;;;;13.14;36.52;99451.47;4933907;29;20046;-74
2023/02/27 10:48:30;;;;;;;2.03;0.95;;;;;;;9.91;40.23;99458.69;4934985;29;20020;-73
2023/02/27 10:51:31;;;;;;;5.18;1.80;;;;;;;9.81;41.11;99458.09;4937053;28;20106;-73
2023/02/27 10:54:18;;;;;;;2.13;1.10;;;;;;;10.79;40.07;99448.09;4944090;29;20420;-72
2023/02/27 10:56:47;;;;;;;4.40;1.48;;;;;;;14.55;36.21;99432.31;4938708;29;20078;-73
2023/02/27 10:59:22;;;;;;;6.05;1.40;;;;;;;17.70;32.98;99409.06;4936417;29;20540;-73
2023/02/27 11:01:52;;;;;;;3.80;1.20;;;;;;;18.67;31.92;99412.44;4935639;29;20044;-73
2023/02/27 11:04:54;;;;;;;3.65;1.15;;;;;;;18.28;30.89;99415.69;4933212;28;20024;-73
2023/02/27 11:07:32;;;;;;;4.18;1.48;;;;;;;19.17;30.29;99412.69;4935074;28;20039;-74
2023/02/27 11:10:11;;;;;;;2.65;1.08;;;;;;;19.45;29.95;99411.84;4932858;28;20081;-73
2023/02/27 11:12:37;;;;;;;1.65;0.88;;;;;;;19.45;29.61;99409.09;4932016;29;20528;-73
2023/02/27 11:15:25;;;;;;;2.42;1.10;;;;;;;19.34;29.79;99401.75;4932214;29;20040;-73
2023/02/27 11:17:50;;;;;;;3.03;1.08;;;;;;;17.69;31.52;99401.94;4933932;29;20024;-73
2023/02/27 11:20:38;;;;;;;2.40;1.15;;;;;;;17.08;31.51;99412.09;4959648;28;20031;-74
2023/02/27 11:23:12;;;;;;;3.92;1.50;;;;;;;14.49;33.68;99414.09;4918398;29;20042;-74
2023/02/27 11:25:38;;;;;;;3.38;1.27;;;;;;;13.28;34.54;99422.47;4933748;29;20031;-74
2023/02/27 11:28:25;;;;;;;2.28;1.00;;;;;;;12.34;35.34;99415.84;4948456;28;20028;-73
2023/02/27 11:31:04;;;;;;;2.20;1.00;;;;;;;11.23;37.66;99425.50;4933715;29;20047;-74
2023/02/27 11:33:34;;;;;;;1.98;1.35;;;;;;;13.41;35.58;99421.69;4946841;28;20047;-74
2023/02/27 11:36:01;;;;;;;2.58;1.60;;;;;;;12.94;35.97;99403.38;4973641;28;20043;-73
2023/02/27 11:38:28;;;;;;;2.55;0.95;;;;;;;14.59;34.38;99411.81;5000833;28;20108;-73
2023/02/27 11:41:06;;;;;;;9.70;1.60;;;;;;;11.33;38.99;99416.03;4988673;28;20523;-74
2023/02/27 11:43:48;;;;;;;4.97;1.17;;;;;;;10.16;40.53;99432.22;4931555;28;20385;-74
2023/02/27 11:46:20;;;;;;;3.15;1.00;;;;;;;8.58;42.31;99426.50;4933247;29;20102;-73
2023/02/27 11:48:49;;;;;;;2.58;1.20;;;;;;;9.58;41.00;99420.28;4935627;28;20074;-73
2023/02/27 11:51:48;;;;;;;3.90;1.42;;;;;;;10.23;40.09;99414.25;4933791;28;20032;-73
2023/02/27 11:54:31;;;;;;;;;;;;;;;13.54;36.05;99405.38;4934927;28;20027;-74
2023/02/27 11:57:03;;;;;;;6.90;1.08;;;;;;;14.35;35.23;99407.84;4932712;29;19922;-73
2023/02/27 11:59:47;;;;;;;3.50;1.48;;;;;;;15.20;33.98;99401.47;4934100;28;20027;-73
2023/02/27 12:02:30;;;;;;;5.80;1.20;;;;;;;13.63;35.20;99415.03;4941853;28;20374;-74
2023/02/27 12:05:16;;;;;;;1.65;1.10;;;;;;;12.05;37.23;99409.59;4938171;28;20036;-74
2023/02/27 12:08:00;;;;;;;6.15;1.92;;;;;;;9.74;41.15;99422.00;4923166;29;20028;-73